NWS Home NWS Lubbock West Texas Mesonet Latest Conditions as of 0733 PM, Tue Feb 21, 2017

Latest   N   C   S   Daily Sum   3hrΔ   24hrΔ   Soil Data 
Site Map   24hr Precip   72hr Precip   Google Plot


Station Time of Last Temp Dew Pt. RH Wind Direction Wind Speed Wind Gust Max Wind Max Temp Min Temp Max RH Min RH Altimeter 1HR Rain Today's Rain Solar Rad
Abernathy 5ENE  07:25 PM 61 27 27% S67 18 mph 201° @ 1250 PM 76 33 78 13 30.04" 0 0 0
Aiken 3WSW  07:25 PM 60 29 31% S1010 17 mph 182° @ 1224 PM 76 26 85 13 30.05" 0 0 0
Amarillo 15NNW   07:25 PM 59 26 29% SE1010 16 mph 190° @ 0119 PM 79 29 65 12 30.01" 0 0 0
Amarillo 7SSE  07:25 PM 56 27 33% S910 17 mph 191° @ 1218 PM 77 25 79 11 30.04" 0 0 0
Amarillo 9NNE  07:25 PM 53 29 39% S99 19 mph 197° @ 1236 PM 78 24 87 12 30.01" 0 0 0
Amherst 1NE  07:25 PM 63 27 25% SE34 15 mph 276° @ 0255 AM 79 33 75 11 30.05" 0 0 0
Andrews 2E  07:25 PM 67 32 28% SW66 24 mph 294° @ 1145 AM 81 43 50 14 30.05" 0 0 0
Anton 6SSW  07:25 PM 62 28 27% SE56 15 mph 284° @ 0530 AM 79 31 75 14 30.04" 0 0 0
Aspermont 3NE  07:25 PM 63 21 20% S44 12 mph 291° @ 0310 PM 81 39 60 9 29.98" 0 0 0
Big Bend NP - Persimmon Gap  07:25 PM 72 27 19% W810 27 mph 219° @ 0200 PM 81 46 56 12 30.09" 0 0 0
Big Lake 1WNW  07:25 PM 66 31 28% W33 22 mph 307° @ 0350 PM 79 45 56 16 30.05" 0 0 0
Bootleg 11WNW  07:25 PM 55 25 31% S1111 17 mph 316° @ 0908 AM 78 31 64 12 30.08" 0 0 0
Boys Ranch 1WSW  07:25 PM 62 26 25% E23 13 mph 286° @ 0335 AM 80 26 66 11 30.00" 0 0 0
Brownfield 2S  07:25 PM 63 33 33% SE78 17 mph 295° @ 1020 AM 79 38 62 14 30.03" 0 0 0
Canadian 6E  07:25 PM 68 21 16% S33 19 mph 253° @ 0213 PM 80 32 66 11 29.94" 0 0 0
Caprock Canyons State Park  01:25 PM 74 17 12% SW46 16 mph 170° @ 0111 PM 75 38 59 11 30.07" 0 0 682
Childress 2NNE  07:25 PM 69 22 17% S55 14 mph 255° @ 0105 PM 79 40 59 12 29.98" 0 0 0
Clarendon 2WSW  07:25 PM 54 26 35% S88 19 mph 233° @ 0235 PM 78 35 60 11 30.00" 0 0 0
Claude 12SW  07:25 PM 66 25 21% S55 17 mph 177° @ 0110 PM 76 38 43 12 30.03" 0 0 0
Clyde 2WNW  07:25 PM 63 31 30% N00 19 mph 318° @ 0205 PM 76 39 73 17 30.01" 0 0 0
Coyanosa 2N  07:25 PM 74 29 19% SW1112 23 mph 271° @ 0251 PM 85 41 50 12 30.04" 0 0 0
Crowell 1E  07:25 PM 63 39 41% SE66 18 mph 310° @ 0225 AM 79 45 51 15 29.97" 0 0 0
Dell City  07:25 PM 67 33 28% W910 19 mph 259° @ 0502 PM 78 30 70 19 30.16" 0 0 0
Denver City 7WNW  07:25 PM 66 32 29% S78 29 mph 300° @ 1055 AM 80 35 70 14 30.04" 0 0 0
Dimmitt 2NE  07:25 PM 56 32 41% SE1112 16 mph 157° @ 1145 AM 75 33 73 17 30.05" 0 0 0
Dora NM 2SW  07:25 PM 60 23 24% W1314 30 mph 285° @ 0640 AM 81 40 53 9 30.08" 0 0 0
Dozier 3W  07:25 PM 64 27 25% SW55 16 mph 229° @ 0305 PM 79 35 67 12 29.98" 0 0 0
Floydada 2NNE  01:25 PM 72 13 10% S914 17 mph 195° @ 0100 PM 72 27 84 10 30.08" 0 0 805
Fluvanna 3WNW  07:25 PM 68 28 23% SE11 19 mph 226° @ 0155 PM 77 40 51 13 30.02" 0 0 0
Fort Chadbourne  07:25 PM 65 37 36% W22 15 mph 319° @ 1249 AM 80 40 68 12 30.01" 0 0 0
Fort Lancaster  07:25 PM 71 35 26% N45 21 mph 286° @ 1144 AM 85 39 80 14 30.02" 0 0 0
Fort Lewis CO  07:25 PM 40 31 70% W34 21 mph 236° @ 0243 PM 52 29 88 43 30.30" 0 0 0
Fort McKavett  07:25 PM 68 38 34% W22 24 mph 301° @ 0308 PM 79 38 77 20 30.03" 0 0 0
Friona 2NE  07:25 PM 55 31 40% S99 12 mph 325° @ 1015 AM 79 25 87 11 30.06" 0 0 0
Gail 2ESE  07:25 PM 66 31 28% SE55 19 mph 303° @ 0130 PM 81 37 70 13 30.01" 0 0 0
Goodlett 3W  07:25 PM 66 29 25% SE77 18 mph 293° @ 0215 AM 79 42 59 12 29.96" 0 0 0
Goodnight  07:20 PM 53 28 38% S56 17 mph 226° @ 0201 PM 77 31 70 12 30.03" 0 0 0
Graham 5SSW  07:25 PM 71 29 21% SE23 18 mph 289° @ 0330 AM 77 38 68 15 30.03" 0 0 0
Guadalupe Mtns Natl Park  07:25 PM 63 27 26% SW710 38 mph 300° @ 0412 PM 74 48 46 14 30.23" 0 0 0
Guthrie 10WSW  07:25 PM 65 22 20% S55 15 mph 291° @ 0215 PM 81 42 45 9 29.98" 0 0 0
Hart 3N  07:25 PM 58 29 33% SE78 14 mph 190° @ 1210 PM 75 27 82 16 30.05" 0 0 0
Haskell 1NW  07:25 PM 64 38 38% E56 15 mph 319° @ 1200 PM 77 42 63 16 29.98" 0 0 0
Hereford 2NW  07:25 PM 64 28 26% S67 13 mph 180° @ 1115 AM 77 28 76 12 30.04" 0 0 0
Hobbs NM 5NW  07:25 PM 65 30 27% SW89 28 mph 312° @ 1130 AM 80 37 61 14 30.08" 0 0 0
Jayton 1SSE  07:25 PM 68 21 17% NW01 15 mph 295° @ 0250 PM 79 36 73 11 29.99" 0 0 0
Junction 1SSW  07:25 PM 61 43 51% S22 21 mph 301° @ 0322 PM 80 37 86 19 30.01" 0 0 0
Knox City 3NW  07:25 PM 54 44 68% SE89 13 mph 298° @ 0240 AM 80 44 69 14 29.98" 0 0 0
Lake Alan Henry 1NW  07:25 PM 69 26 20% N00 16 mph 228° @ 0144 PM 79 36 74 10 30.01" 0 0 0
Lamesa 2SE  07:25 PM 62 36 38% SW01 18 mph 303° @ 1245 PM 79 40 68 16 30.04" 0 0 0
Levelland 4S  07:25 PM 61 25 25% SE78 15 mph 293° @ 1040 AM 82 33 72 9 30.04" 0 0 0
Lomax 1SSE  07:25 PM 62 39 43% SW66 24 mph 309° @ 0126 PM 81 35 76 18 30.02" 0 0 0
Lubbock 3WNW TTU  07:25 PM 57 26 30% SE45 12 mph 231° @ 0230 PM 79 32 68 11 30.03" 0 0 0
McCamey 1SSW  07:25 PM 72 34 24% W01 18 mph 273° @ 1041 AM 83 38 68 14 30.03" 0 0 0
McLean 1E  07:25 PM 65 19 17% SW78 20 mph 225° @ 0120 PM 77 38 56 9 29.98" 0 0 0
Memphis 1NE  07:25 PM 67 25 21% S66 16 mph 220° @ 0240 PM 78 38 66 11 29.98" 0 0 0
Menard 2NW   07:25 PM 60 43 53% N00 21 mph 299° @ 0321 PM 78 37 79 21 30.02" 0 0 0
Mertzon 3NNE  07:25 PM 56 41 58% SW01 25 mph 279° @ 0201 PM 80 40 60 20 30.03" 0 0 0
Morton 1ENE  07:25 PM 65 23 20% SE67 16 mph 288° @ 0950 AM 81 36 65 10 30.04" 0 0 0
Muleshoe 2SSW  07:25 PM 55 25 31% SE56 18 mph 279° @ 1010 AM 79 25 93 10 30.05" 0 0 0
New Home  07:25 PM 65 30 27% SE55 14 mph 280° @ 1225 PM 79 36 67 13 30.05" 0 0 0
Northfield 1S  07:25 PM 66 24 20% S89 17 mph 221° @ 0240 PM 81 33 79 11 29.99" 0 0 0
O'Donnell 1N  07:25 PM 66 29 26% SE45 16 mph 281° @ 1255 PM 80 35 69 12 30.03" 0 0 0
Odell 4ENE  07:25 PM 60 44 55% SE89 17 mph 313° @ 0147 PM 79 38 86 13 29.97" 0 0 0
Olton 6S  07:25 PM 62 27 27% E78 14 mph 270° @ 0300 AM 77 28 81 13 30.04" 0 0 0
Paducah 10SW  07:25 PM 64 23 21% W1011 16 mph 291° @ 0135 AM 80 45 41 10 29.98" 0 0 0
Palo Duro Canyon SP Floor  07:25 PM 61 30 30% S11 15 mph 215° @ 0134 PM 80 30 74 11 30.01" 0 0 0
Palo Duro Canyon State Park Rim  07:25 PM 63 27 25% S56 18 mph 283° @ 0417 AM 77 30 69 12 30.04" 0 0 0
Pampa 2E  07:25 PM 58 28 32% SW910 18 mph 218° @ 0155 PM 76 34 59 12 30.00" 0 0 0
Panhandle 1SSW  07:25 PM 49 28 43% S45 19 mph 212° @ 0130 PM 76 28 71 12 30.04" 0 0 0
Plains 3N  07:25 PM 63 30 28% SE78 25 mph 302° @ 1140 AM 80 31 75 12 30.05" 0 0 0
Plainview 1S  07:10 PM 63 29 28% S23 16 mph 189° @ 1240 PM 75 29 80 14 30.03" 0 0 0
Post 1NE  07:25 PM 68 31 26% S22 16 mph 238° @ 0150 PM 79 39 60 12 30.02" 0 0 0
Ralls 1SE  07:25 PM 61 34 37% S34 16 mph 225° @ 0110 PM 74 35 62 13 30.04" 0 0 0
Reese Center  07:25 PM 65 25 22% SE56 18 mph 205° @ 1245 PM 79 31 72 12 30.03" 0 0 0
Roaring Springs 3N  07:25 PM 64 25 23% SW55 17 mph 218° @ 0115 PM 77 38 62 12 30.01" 0 0 0
San Angelo 7NW  07:25 PM 66 35 32% S23 21 mph 283° @ 0140 PM 79 38 68 16 30.01" 0 0 0
Seagraves 1SW  07:25 PM 65 32 30% S77 25 mph 290° @ 1000 AM 80 36 71 15 30.04" 0 0 0
Seminole 2NNE  07:25 PM 65 32 29% S55 26 mph 295° @ 1010 AM 80 37 65 16 30.04" 0 0 0
Seymour 3NW  07:25 PM 59 42 53% SE56 17 mph 306° @ 0355 AM 77 44 69 19 29.97" 0 0 0
Sierra Blanca 1SSE  07:25 PM 64 32 30% W67 27 mph 290° @ 0509 AM 71 49 53 23 30.22" 0 0 0
Silverton 7ESE  07:25 PM 57 24 28% SW77 16 mph 221° @ 0250 PM 76 27 79 9 30.03" 0 0 0
Slaton 2NE  07:25 PM 64 34 34% SE910 16 mph 310° @ 1205 AM 77 35 70 15 30.03" 0 0 0
Snyder 3E  07:25 PM 66 32 29% S45 16 mph 260° @ 0140 PM 78 42 51 13 30.02" 0 0 0
Snyder 3SSW  07:25 PM 69 33 26% S56 18 mph 261° @ 0106 PM 78 41 57 14 30.02" 0 0 0
Spur 1W  07:25 PM 61 27 27% SW45 15 mph 262° @ 0150 PM 77 36 68 10 30.00" 0 0 0
St. Lawrence 5SW  07:25 PM 66 32 28% SW89 28 mph 316° @ 1225 PM 80 36 75 15 30.03" 0 0 0
Stamford 5ESE  07:25 PM 66 38 36% SE44 15 mph 328° @ 1134 AM 79 38 83 18 29.98" 0 0 0
Sterling City 4WSW  07:25 PM 57 41 55% S22 22 mph 276° @ 0116 PM 81 29 87 18 30.03" 0 0 0
Sundown 8WSW  07:25 PM 64 24 22% SE56 22 mph 285° @ 0910 AM 82 32 75 10 30.04" 0 0 0
Sweetwater 11SW   07:25 PM 67 30 25% S22 16 mph 276° @ 0127 PM 76 38 70 14 30.04" 0 0 0
Tahoka 3NNE  07:25 PM 61 34 36% SE78 14 mph 267° @ 1239 PM 78 32 71 11 30.03" 0 0 0
Tarzan 2WNW  07:25 PM 69 40 34% S23 24 mph 292° @ 1251 PM 80 39 70 19 30.04" 0 0 0
Tatum NM 2SW  07:25 PM 56 28 34% W89 33 mph 291° @ 1015 AM 82 34 73 11 30.07" 0 0 0
Throckmorton 1SW  07:25 PM 62 42 49% SW44 19 mph 308° @ 0327 PM 75 48 61 24 29.98" 0 0 0
Tulia 2ENE  07:25 PM 57 31 38% S88 16 mph 196° @ 1250 PM 74 28 84 18 30.04" 0 0 0
Turkey 2WSW  01:25 PM 73 21 14% S58 12 mph 259° @ 0750 AM 74 36 76 14 30.06" 0 0 742
Umbarger 3NNE  07:25 PM 52 31 45% S910 19 mph 195° @ 1204 PM 76 26 84 14 30.04" 0 0 0
Vigo Park  07:25 PM 56 29 36% S1111 16 mph 207° @ 1224 PM 75 28 77 13 30.04" 0 0 0
Wall 2E  07:25 PM 68 38 33% W34 26 mph 293° @ 0427 PM 80 38 76 17 30.02" 0 0 0
Weinert 2NNE  07:25 PM 60 45 58% SE88 14 mph 349° @ 1213 PM 77 42 65 22 29.98" 0 0 0
Welch  07:25 PM 60 31 33% SE66 16 mph 309° @ 1046 AM 80 37 66 14 30.04" 0 0 0
White River Lake 6NW  07:25 PM 68 26 21% S23 17 mph 194° @ 0210 PM 77 41 46 10 30.02" 0 0 0
Wolfforth 6SSW  07:25 PM 63 24 22% E78 15 mph 312° @ 0415 PM 79 32 69 12 30.04" 0 0 0

West Texas Mesonet Home   Site Map/Menu  NWS Lubbock Soil Data  Daily Summary Page  24hr Precip  72hr Precip  Google Plot